• Join FlightAware (Why Join?)
  • Login
  • US Flag 
08:45PM EST


 

Airport Tracker/Info


-or-


 

Live Flight TrackerFlight Track Log ✈ VEC5204 ✈ 22-Apr-2013 ✈ SVVA / VLN - KMIA

Flight Track Log - Related Links

Times and Time Zones

All times are in EDT time to prevent confusion due to time zone crossing. See the VEC5204 flight status page for this flight to view local times or setup timezone preferences in your user account.

Time Position Orientation Groundspeed Altitude Reporting Facility
EDT Latitude Longitude Course Direction KTS MPH feet Rate Location/Type
01:10PM 19.1378 -72.6592 325° Northwest 481 554 40,000  Level Miami Center
01:11PM 19.2478 -72.7194 333° Northwest 466 536 40,000  Level Miami Center
01:12PM 10.2407 -67.9936 325° Northwest  Level Estimated
01:12PM 19.3494 -72.7758 332° Northwest 433 498 40,000  Level Miami Center
01:13PM 10.3317 -68.0588 325° Northwest  Level Estimated
01:13PM 19.4508 -72.8344 331° Northwest 417 480 40,000  Level Miami Center
01:14PM 10.4227 -68.1241 325° Northwest  Level Estimated
01:14PM 19.5544 -72.8886 334° Northwest 410 472 40,000  Level Miami Center
01:15PM 10.5136 -68.1894 325° Northwest  Level Estimated
01:15PM 19.6558 -72.9475 331° Northwest 410 472 40,000  Level Miami Center
01:16PM 10.6046 -68.2548 325° Northwest  Level Estimated
01:16PM 19.7572 -73.0019 333° Northwest 417 480 40,000  Level Miami Center
01:17PM 19.8608 -73.0606 332° Northwest 417 480 40,000  Level Miami Center
01:18PM 19.9667 -73.1194 332° Northwest 417 480 40,000  Level Miami Center
01:19PM 20.0661 -73.1764 332° Northwest 417 480 40,000  Level Miami Center
01:20PM 20.1694 -73.2333 333° Northwest 422 486 40,000  Level Miami Center
01:21PM 20.2689 -73.2972 329° Northwest 422 486 40,000  Level Miami Center
01:22PM 20.3522 -73.3747 319° Northwest 417 480 40,000  Level Miami Center
01:23PM 20.4394 -73.4564 319° Northwest 412 474 40,000  Level Miami Center
01:24PM 20.5247 -73.5342 320° Northwest 407 468 40,000  Level Miami Center
01:25PM 20.6119 -73.6139 319° Northwest 407 468 40,000  Level Miami Center
01:26PM 20.6906 -73.6875 319° Northwest 407 468 40,000  Level Miami Center
01:27PM 20.7778 -73.7653 320° Northwest 407 468 40,000  Level Miami Center
01:28PM 20.8606 -73.8433 319° Northwest 407 468 40,000  Level Miami Center
01:29PM 20.9519 -73.9258 320° Northwest 412 474 40,000  Level Miami Center
01:30PM 21.0369 -74.0039 319° Northwest 407 468 40,000  Level Miami Center
01:31PM 21.1219 -74.0822 319° Northwest 407 468 40,000  Level Miami Center
01:32PM 21.2067 -74.1606 319° Northwest 407 468 40,000  Level Miami Center
01:33PM 21.2936 -74.2436 318° Northwest 407 468 40,000  Level Miami Center
01:34PM 21.3806 -74.3200 321° Northwest 407 468 40,000  Level Miami Center
01:35PM 21.4675 -74.4031 318° Northwest 407 468 40,000  Level Miami Center
01:36PM 21.5544 -74.4817 320° Northwest 407 468 40,000  Level Miami Center
01:37PM 21.6411 -74.5606 320° Northwest 412 474 40,000  Level Miami Center
01:38PM 21.7258 -74.6419 318° Northwest 412 474 40,000  Level Miami Center
01:39PM 21.8086 -74.7233 318° Northwest 407 468 40,000  Level Miami Center
01:40PM 21.8931 -74.8003 320° Northwest 402 463 40,000  Level Miami Center
01:41PM 21.9800 -74.8817 319° Northwest 402 463 40,000  Level Miami Center
01:42PM 22.0644 -74.9633 318° Northwest 402 463 40,000  Level Miami Center
01:43PM 22.1511 -75.0428 320° Northwest 402 463 40,000  Level Miami Center
01:44PM 22.2378 -75.1336 316° Northwest 402 463 40,000  Level Miami Center
01:45PM 22.3097 -75.2314 309° West 397 457 40,000  Level Miami Center
01:46PM 22.3756 -75.3272 307° West 402 463 40,000  Level Miami Center
01:47PM 22.4433 -75.4231 307° West 402 463 40,000  Level Miami Center
01:48PM 22.5133 -75.5233 307° West 407 468 40,000  Level Miami Center
01:49PM 22.5808 -75.6172 308° West 407 468 40,000  Level Miami Center
01:51PM 22.7183 -75.8117 307° West 407 468 40,000  Level Miami Center
01:52PM 22.7858 -75.9081 307° West 402 463 40,000  Level Miami Center
01:53PM 22.8531 -76.0044 307° West 407 468 40,000  Level Miami Center
01:54PM 22.9225 -76.0989 309° West 407 468 40,000  Level Miami Center
01:55PM 22.9900 -76.1956 307° West 402 463 40,000  Level Miami Center
01:56PM 23.0550 -76.2900 307° West 402 463 40,000  Level Miami Center
01:57PM 23.1244 -76.3867 308° West 407 468 40,000  Level Miami Center
01:58PM 23.1917 -76.4814 308° West 407 468 40,000  Level Miami Center
01:59PM 23.2586 -76.5786 307° West 407 468 40,000  Level Miami Center
02:00PM 23.3278 -76.6756 308° West 407 468 40,000  Level Miami Center
02:01PM 23.3864 -76.7639 306° West 407 468 40,000  Level Miami Center
02:02PM 23.4553 -76.8589 308° West 402 463 40,000  Level Miami Center
02:03PM 23.5222 -76.9564 307° West 407 468 40,000  Level Miami Center
02:04PM 23.5911 -77.0517 308° West 453 521 40,000  Level Miami Center
02:05PM 23.6850 -77.1219 326° Northwest 427 491 40,000  Level Miami Center
02:06PM 23.7831 -77.1836 330° Northwest 409 471 40,000  Level Miami Center
02:07PM 23.8833 -77.2431 332° Northwest 409 471 40,000  Level Miami Center
02:08PM 23.9667 -77.3228 319° Northwest 409 471 40,000  Level Miami Center
02:09PM 24.0269 -77.4253 303° West 392 451 40,000  Level Miami Center
02:10PM 24.0892 -77.5236 305° West 398 458 40,000  Level Miami Center
02:11PM 24.1494 -77.6264 303° West 403 464 40,000  Level Miami Center
02:12PM 24.2114 -77.7292 303° West 403 464 40,000  Level Miami Center
02:13PM 24.2714 -77.8300 303° West 398 458 40,000  Level Miami Center
02:14PM 24.3333 -77.9308 304° West 398 458 40,000  Level Miami Center
02:15PM 24.3911 -78.0339 302° West 398 458 40,000  Level Miami Center
02:16PM 24.4531 -78.1350 304° West 393 452 40,000 -540 Level Miami Center
02:17PM 24.4647 -78.2469 277° West 374 430 39,000 -840 Descending Miami Center
02:18PM 24.4508 -78.3656 263° West 374 430 38,400 -840 Descending Miami Center
02:19PM 24.4331 -78.4839 261° West 384 442 37,400 -960 Descending Miami Center
02:20PM 24.4253 -78.6072 266° West 397 457 36,500 -840 Descending Miami Center
02:21PM 24.4114 -78.7303 263° West 403 464 35,800 -1,200 Descending Miami Center
02:22PM 24.4581 -78.8358 296° West 395 455 34,100 -1,380 Descending Miami Center
02:23PM 24.5550 -78.9242 320° Northwest 396 456 33,100 -900 Descending Miami Center
02:24PM 24.6436 -79.0103 319° Northwest 411 473 32,400 -660 Descending Miami Center
02:25PM 24.7344 -79.0897 322° Northwest 418 481 31,800 -720 Descending Miami Center
02:26PM 24.8231 -79.1758 319° Northwest 423 487 31,000 -900 Descending Miami Center
02:27PM 24.9114 -79.2578 320° Northwest 423 487 30,000 -2,100 Descending Miami Center
02:28PM 24.9897 -79.3350 318° Northwest 404 465 26,900 -3,000 Descending Miami Center
02:29PM 25.0614 -79.4075 318° Northwest 373 429 24,000 -3,060 Descending Miami Center
02:30PM 25.1356 -79.4756 320° Northwest 356 410 20,800 -3,300 Descending Miami Center
02:31PM 25.2011 -79.5414 318° Northwest 334 384 17,500 -2,880 Descending Miami Center
02:32PM 25.2525 -79.5953 317° Northwest 320 368 15,900 -2,040 Descending Miami Center
02:32PM 25.2689 -79.6072 327° Northwest 328 377 15,500 -1,860 Descending Miami Center
02:32PM 25.2975 -79.6400 314° West 319 367 14,600 -1,920 Descending Miami Center
02:33PM 25.3347 -79.6683 325° Northwest 323 372 13,600 -2,040 Descending Miami Center
02:33PM 25.3736 -79.7131 314° West 310 357 12,400 -1,620 Descending Miami Center
02:34PM 25.3961 -79.7342 320° Northwest 312 359 12,000 -720 Descending Miami Center
02:35PM 25.4244 -79.7831 303° West 293 337 11,700 -840 Descending Miami Center
02:35PM 25.4447 -79.8067 314° West 304 350 11,200 -1,140 Descending Miami Center
02:36PM 25.4711 -79.8533 302° West 288 331 10,600 -900 Descending Miami Center
02:36PM 25.4894 -79.8767 311° West 291 335 10,300 -660 Descending Miami Center
02:36PM 25.5156 -79.9211 303° West 282 325 10,000 -300 Descending Miami Center
02:37PM 25.5339 -79.9469 308° West 286 329 10,000  Level Miami Center
02:37PM 25.5561 -79.9819 305° West 248 285 10,000  Level Miami Center
02:38PM 25.5744 -80.0078 308° West 266 306 10,000  Level Miami Center
02:38PM 25.6006 -80.0522 303° West 254 292 10,000  Level Miami Center
02:39PM 25.6169 -80.0689 317° Northwest 261 300 10,000  Level Miami Center
02:40PM 25.6472 -80.1181 304° West 253 291 10,000  Level Miami Center
02:40PM 25.6594 -80.1322 314° West 261 300 10,000 -420 Level Miami Center
02:41PM 25.7025 -80.1611 329° Northwest 248 285 9,600 -720 Descending Miami Center
02:41PM 25.7233 -80.1664 347° North 254 292 9,300 -900 Descending Miami Center
02:42PM 25.7769 -80.1956 334° Northwest 247 284 8,600 -840 Descending Miami Center
02:43PM 25.8286 -80.2175 339° North 240 276 8,000 -720 Descending Miami Center
02:44PM 25.8886 -80.2494 334° Northwest 242 278 7,300 -1,380 Descending Miami Center
02:45PM 25.9228 -80.3081 303° West 231 266 5,300 -1,680 Descending Miami Center
02:46PM 25.9356 -80.3822 281° West 229 264 3,900 -1,140 Descending Miami Center
02:47PM 25.9297 -80.4514 265° West 220 253 3,100 -480 Descending Miami Center
02:48PM 25.9014 -80.5014 238° Southwest 211 243 3,000 -60 Descending Miami Center
02:49PM 25.8733 -80.4544 124° Southeast 194 223 3,000 -600 Level Miami Center
02:50PM 25.8433 -80.3933 119° Southeast 196 226 1,800 -1,020 Descending Miami Center
02:51PM 25.8194 -80.3467 120° Southeast 159 183 900 -780 Descending Miami Center
02:52PM 25.8033 -80.3161 120° Southeast 112 129 300 -600 Descending Miami Center